Time;durP1;ratioP1;P1;durP2;ratioP2;P2;SDS_P1;SDS_P2;PMS_P1;PMS_P2;Temp;Humidity;BMP_temperature;BMP_pressure;BME280_temperature;BME280_humidity;BME280_pressure;Samples;Min_cycle;Max_cycle;Signal;HPM_P1;HPM_P2
2022/08/13 07:25:47;;;;;;;6.05;4.63;;;26.20;39.80;;;;;;5025948;28;20315;-74
2022/08/13 07:28:15;;;;;;;11.10;4.90;;;23.70;44.70;;;;;;5025684;28;20068;-75
2022/08/13 07:30:45;;;;;;;18.02;6.05;;;22.00;48.90;;;;;;5022237;28;20034;-76
2022/08/13 07:33:13;;;;;;;9.20;4.33;;;21.30;52.80;;;;;;5058387;28;20071;-77
2022/08/13 07:35:38;;;;;;;6.72;4.13;;;20.90;55.90;;;;;;5026722;28;20288;-76
2022/08/13 07:38:04;;;;;;;7.00;4.07;;;20.90;54.50;;;;;;5039432;22;20046;-75
2022/08/13 07:40:33;;;;;;;9.73;4.78;;;20.90;53.90;;;;;;5026752;28;20076;-75
2022/08/13 07:43:03;;;;;;;14.77;5.97;;;20.90;53.80;;;;;;5027061;28;20041;-74
2022/08/13 07:45:28;;;;;;;14.20;6.05;;;21.00;53.80;;;;;;5027059;28;20110;-75
2022/08/13 07:47:55;;;;;;;15.15;6.40;;;21.10;53.60;;;;;;5027328;28;20114;-75
2022/08/13 07:50:22;;;;;;;7.82;4.10;;;21.20;54.40;;;;;;5027979;28;20037;-75
2022/08/13 07:52:55;;;;;;;6.55;4.13;;;21.40;57.40;;;;;;5028775;28;20037;-75
2022/08/13 07:55:25;;;;;;;7.72;5.35;;;21.40;57.30;;;;;;5028812;28;20037;-76
2022/08/13 07:57:52;;;;;;;7.25;4.68;;;21.40;57.30;;;;;;5028460;28;20029;-75
2022/08/13 08:00:21;;;;;;;9.48;4.93;;;21.50;57.00;;;;;;5028520;28;20112;-74
2022/08/13 08:02:54;;;;;;;11.80;4.13;;;21.50;55.30;;;;;;5028694;28;20088;-74
2022/08/13 08:05:22;;;;;;;7.78;4.18;;;21.60;55.10;;;;;;5028751;28;20030;-75
2022/08/13 08:07:50;;;;;;;6.38;4.78;;;21.50;54.80;;;;;;5026927;28;20026;-75
2022/08/13 08:10:17;;;;;;;12.85;6.30;;;21.30;54.30;;;;;;5028444;28;20018;-74
2022/08/13 08:12:44;;;;;;;17.75;9.30;;;21.50;54.50;;;;;;5028381;28;20056;-75
2022/08/13 08:15:11;;;;;;;16.48;7.90;;;21.80;53.80;;;;;;5028231;28;20065;-73
2022/08/13 08:17:37;;;;;;;9.82;5.35;;;21.90;53.20;;;;;;5028038;28;20029;-74
2022/08/13 08:20:04;;;;;;;9.35;4.28;;;22.10;52.90;;;;;;5026859;28;20030;-73
2022/08/13 08:22:30;;;;;;;8.60;4.75;;;22.20;52.10;;;;;;5028478;28;20030;-75
2022/08/13 08:24:57;;;;;;;7.63;4.05;;;22.30;51.40;;;;;;5028190;28;20486;-76
2022/08/13 08:27:24;;;;;;;11.60;4.72;;;22.20;51.80;;;;;;5027691;28;20068;-74
2022/08/13 08:29:49;;;;;;;7.40;4.65;;;22.50;51.70;;;;;;5028156;28;20024;-75
2022/08/13 08:32:16;;;;;;;6.53;4.25;;;22.50;51.30;;;;;;5028441;28;20017;-75
2022/08/13 08:34:45;;;;;;;14.20;4.85;;;22.50;51.50;;;;;;5028086;28;20030;-74
2022/08/13 08:43:00;;;;;;;37.63;15.90;;;22.30;52.40;;;;;;5014649;28;20033;-74
2022/08/13 08:45:27;;;;;;;8.43;4.50;;;22.30;52.70;;;;;;5013089;28;20026;-74
2022/08/13 08:47:52;;;;;;;12.57;5.20;;;22.20;53.40;;;;;;5014202;28;20487;-75
2022/08/13 08:50:24;;;;;;;6.25;4.03;;;22.20;53.40;;;;;;5012999;28;20022;-74
2022/08/13 08:55:38;;;;;;;8.20;4.30;;;22.10;53.90;;;;;;5014906;28;19913;-75
2022/08/13 08:58:06;;;;;;;6.60;4.18;;;22.20;53.90;;;;;;5014319;28;20110;-74
2022/08/13 09:00:35;;;;;;;7.05;4.00;;;22.30;53.40;;;;;;5012876;28;20033;-73
2022/08/13 09:03:01;;;;;;;6.72;4.45;;;22.50;53.60;;;;;;5014312;28;20030;-75
2022/08/13 09:05:27;;;;;;;4.28;3.55;;;22.60;52.40;;;;;;5012888;28;20408;-74
2022/08/13 09:07:56;;;;;;;5.18;4.50;;;22.80;51.90;;;;;;5013814;28;20018;-75
2022/08/13 09:10:23;;;;;;;6.97;4.18;;;22.80;51.90;;;;;;5014601;28;20260;-73
2022/08/13 09:12:52;;;;;;;6.25;3.95;;;22.90;51.10;;;;;;5014392;28;20076;-75
2022/08/13 09:15:22;;;;;;;7.55;4.00;;;22.90;51.40;;;;;;5012758;28;20471;-73
2022/08/13 09:17:49;;;;;;;7.65;4.65;;;23.00;51.30;;;;;;5013891;28;20036;-75
2022/08/13 09:20:28;;;;;;;5.05;4.43;;;22.80;51.50;;;;;;5012717;28;20029;-75
2022/08/13 09:23:03;;;;;;;7.72;5.05;;;22.50;52.90;;;;;;5013824;28;20026;-74
2022/08/13 09:25:30;;;;;;;10.68;5.25;;;22.70;53.30;;;;;;5013746;28;20018;-74
2022/08/13 09:27:57;;;;;;;8.85;5.70;;;23.00;52.90;;;;;;5013280;28;20057;-74
2022/08/13 09:30:23;;;;;;;11.02;6.10;;;23.30;52.40;;;;;;5013982;28;20030;-74
2022/08/13 09:32:53;;;;;;;7.35;5.93;;;23.60;52.10;;;;;;5013422;28;20048;-75
2022/08/13 09:35:18;;;;;;;11.07;6.00;;;23.80;52.30;;;;;;5013946;28;20033;-74
2022/08/13 09:37:45;;;;;;;9.15;6.35;;;24.00;52.20;;;;;;5013337;28;20527;-74
2022/08/13 09:40:14;;;;;;;13.27;7.18;;;24.10;51.90;;;;;;5013588;28;20022;-75
2022/08/13 09:42:57;;;;;;;8.23;6.18;;;24.00;52.30;;;;;;5013276;28;20026;-76
2022/08/13 09:45:25;;;;;;;9.10;5.85;;;24.30;52.40;;;;;;5013103;28;20065;-75
2022/08/13 09:47:54;;;;;;;6.38;5.57;;;24.80;51.10;;;;;;5012160;28;20014;-75
2022/08/13 09:50:23;;;;;;;8.35;6.18;;;25.10;50.60;;;;;;5012028;28;20061;-75
2022/08/13 09:52:49;;;;;;;12.57;5.97;;;25.30;50.00;;;;;;5013253;28;20025;-75
2022/08/13 09:55:15;;;;;;;13.45;7.57;;;25.20;50.40;;;;;;5013130;28;20204;-74
2022/08/13 09:58:00;;;;;;;9.05;6.70;;;25.30;50.00;;;;;;5012587;28;20536;-75
2022/08/13 10:00:28;;;;;;;6.85;5.63;;;25.30;49.80;;;;;;5011262;28;20160;-75
2022/08/13 10:03:00;;;;;;;10.05;6.97;;;25.40;50.20;;;;;;5010945;28;20022;-74
2022/08/13 10:05:34;;;;;;;7.55;6.72;;;25.60;49.80;;;;;;5010852;28;20480;-74
2022/08/13 10:08:06;;;;;;;10.70;7.45;;;26.00;49.00;;;;;;5010703;28;20022;-74
2022/08/13 10:10:33;;;;;;;9.65;6.57;;;26.80;47.10;;;;;;5010848;28;20126;-75
2022/08/13 10:13:00;;;;;;;8.18;5.90;;;27.00;46.80;;;;;;5011377;28;20483;-74
2022/08/13 10:15:27;;;;;;;7.70;6.18;;;27.10;46.70;;;;;;5012541;28;20050;-75
2022/08/13 10:17:55;;;;;;;9.45;6.38;;;27.00;46.90;;;;;;5012656;28;20030;-74
2022/08/13 10:20:36;;;;;;;11.45;6.80;;;27.30;46.20;;;;;;5012688;28;20502;-74
2022/08/13 10:23:05;;;;;;;9.55;6.35;;;27.30;46.60;;;;;;5012543;28;20034;-74
2022/08/13 10:25:30;;;;;;;10.00;6.38;;;27.40;46.30;;;;;;5012665;28;20500;-76
2022/08/13 10:27:57;;;;;;;13.05;6.78;;;27.90;45.90;;;;;;5012245;28;20129;-76
2022/08/13 10:30:25;;;;;;;8.48;6.63;;;28.40;45.70;;;;;;5011378;28;20041;-75
2022/08/13 10:32:55;;;;;;;11.20;6.88;;;28.40;44.80;;;;;;5012428;28;20045;-73
2022/08/13 10:35:27;;;;;;;9.20;6.63;;;28.60;44.50;;;;;;5012493;28;20021;-74
2022/08/13 10:37:57;;;;;;;11.68;6.57;;;28.40;44.80;;;;;;5011871;28;20504;-73
2022/08/13 10:40:24;;;;;;;10.07;6.35;;;28.40;45.10;;;;;;5012501;28;20459;-72
2022/08/13 10:42:51;;;;;;;8.40;6.28;;;28.40;45.30;;;;;;5012423;28;20032;-74
2022/08/13 10:45:19;;;;;;;7.32;6.13;;;28.20;46.00;;;;;;5012205;28;20064;-75
2022/08/13 10:47:50;;;;;;;6.95;5.45;;;28.00;46.40;;;;;;5012323;28;20048;-75
2022/08/13 10:50:17;;;;;;;15.35;6.45;;;28.00;46.80;;;;;;5012311;28;20460;-74
2022/08/13 10:52:43;;;;;;;7.00;5.80;;;27.60;47.70;;;;;;5012215;28;20456;-75
2022/08/13 10:55:11;;;;;;;7.68;6.22;;;27.40;48.60;;;;;;5012200;28;20029;-75
2022/08/13 10:57:43;;;;;;;8.57;6.53;;;26.60;50.20;;;;;;5011722;28;20033;-75
2022/08/13 11:00:11;;;;;;;9.40;6.30;;;26.00;51.80;;;;;;5011577;28;20034;-74
2022/08/13 11:02:37;;;;;;;8.48;6.47;;;25.90;52.50;;;;;;5011713;28;20072;-73
2022/08/13 11:05:05;;;;;;;8.98;6.03;;;25.70;53.60;;;;;;5012001;28;20026;-73
2022/08/13 11:07:32;;;;;;;9.27;6.70;;;25.60;53.60;;;;;;5011845;28;20041;-74
2022/08/13 11:09:59;;;;;;;8.85;6.18;;;25.30;54.50;;;;;;5011917;28;20354;-73
2022/08/13 11:12:25;;;;;;;8.30;6.68;;;25.10;55.30;;;;;;5011770;28;20026;-75
2022/08/13 11:14:51;;;;;;;8.80;6.30;;;25.50;54.40;;;;;;5011794;28;20392;-75
2022/08/13 11:17:19;;;;;;;9.77;6.57;;;25.60;54.00;;;;;;5011168;28;20026;-73
2022/08/13 11:19:46;;;;;;;10.70;6.32;;;25.80;53.50;;;;;;5011985;28;20036;-73
2022/08/13 11:22:12;;;;;;;8.43;7.03;;;25.90;53.30;;;;;;5011698;28;20076;-73
2022/08/13 11:24:38;;;;;;;9.13;6.28;;;25.20;56.10;;;;;;5011897;28;20431;-72
2022/08/13 11:27:05;;;;;;;7.72;6.97;;;24.50;58.50;;;;;;5011286;28;20084;-74
2022/08/13 11:29:30;;;;;;;10.50;7.45;;;24.00;60.30;;;;;;5011205;28;20029;-73
2022/08/13 11:31:57;;;;;;;8.90;7.32;;;23.90;61.10;;;;;;5011623;28;20029;-73
2022/08/13 11:34:25;;;;;;;8.73;7.32;;;23.90;61.30;;;;;;5011527;28;20030;-74
2022/08/13 11:36:51;;;;;;;9.05;8.07;;;24.00;61.00;;;;;;5011496;28;20128;-74
2022/08/13 11:39:17;;;;;;;9.20;7.82;;;24.20;60.70;;;;;;5010889;28;20026;-74
2022/08/13 11:41:42;;;;;;;10.52;7.78;;;24.20;60.60;;;;;;5011132;28;20403;-73
2022/08/13 11:44:08;;;;;;;8.95;6.88;;;24.20;60.10;;;;;;5009283;28;20030;-74
2022/08/13 11:46:34;;;;;;;9.13;7.25;;;24.10;60.40;;;;;;5009370;28;20026;-74
2022/08/13 11:48:59;;;;;;;12.23;8.25;;;24.10;60.60;;;;;;5008421;28;20040;-74
2022/08/13 11:51:25;;;;;;;9.25;7.82;;;23.90;60.70;;;;;;5010421;28;20034;-75
2022/08/13 11:53:51;;;;;;;8.70;7.80;;;24.00;60.80;;;;;;5010078;28;20022;-73
2022/08/13 11:56:16;;;;;;;8.63;7.82;;;23.90;60.90;;;;;;5010866;28;20030;-74
2022/08/13 11:58:42;;;;;;;8.63;7.72;;;24.00;60.70;;;;;;5011661;28;20026;-74
2022/08/13 12:01:08;;;;;;;9.32;7.90;;;23.90;60.90;;;;;;5012429;28;20100;-73
2022/08/13 12:03:35;;;;;;;10.52;8.05;;;24.00;60.90;;;;;;5010259;28;20037;-73
2022/08/13 12:06:00;;;;;;;13.05;8.32;;;23.90;60.80;;;;;;5011618;28;20084;-73
2022/08/13 12:08:26;;;;;;;8.55;7.72;;;23.90;60.80;;;;;;5011207;28;20480;-74
2022/08/13 12:10:52;;;;;;;9.27;8.32;;;23.90;60.90;;;;;;5012898;28;20026;-73
2022/08/13 12:13:17;;;;;;;10.15;8.18;;;23.70;61.10;;;;;;5015164;28;20045;-73
2022/08/13 12:15:43;;;;;;;10.55;8.18;;;23.80;60.90;;;;;;5015183;28;20045;-74
2022/08/13 12:18:13;;;;;;;9.93;8.90;;;24.00;60.60;;;;;;5014758;28;20381;-73
2022/08/13 12:20:39;;;;;;;9.48;8.60;;;24.00;60.40;;;;;;5015030;28;20026;-74
2022/08/13 12:23:06;;;;;;;13.77;8.95;;;24.00;60.30;;;;;;5014920;28;20150;-75
2022/08/13 12:25:33;;;;;;;13.20;8.98;;;24.00;60.10;;;;;;5013545;28;20105;-74
2022/08/13 12:28:08;;;;;;;10.13;9.13;;;24.00;59.70;;;;;;5014194;28;20064;-74
2022/08/13 12:30:33;;;;;;;10.52;8.93;;;24.00;60.00;;;;;;5014618;28;20049;-74
2022/08/13 12:32:59;;;;;;;12.80;9.80;;;23.90;60.10;;;;;;5014517;28;20072;-74
2022/08/13 12:35:25;;;;;;;25.13;16.17;;;23.90;60.00;;;;;;5014350;28;20121;-74
2022/08/13 12:37:50;;;;;;;12.52;9.13;;;23.80;60.40;;;;;;5014085;28;20034;-74
2022/08/13 12:40:16;;;;;;;12.32;9.90;;;23.80;60.50;;;;;;5014118;28;20033;-73
2022/08/13 12:42:41;;;;;;;10.63;9.18;;;23.80;60.40;;;;;;5014128;28;20049;-73
2022/08/13 12:45:09;;;;;;;14.68;10.70;;;23.80;60.40;;;;;;5014304;28;20076;-74
2022/08/13 12:47:35;;;;;;;12.82;9.50;;;23.80;60.60;;;;;;5013690;28;20054;-73
2022/08/13 12:50:02;;;;;;;13.15;10.07;;;23.90;60.30;;;;;;5014294;28;20057;-74
2022/08/13 12:52:28;;;;;;;11.70;9.55;;;23.90;60.50;;;;;;5014186;28;20026;-75
2022/08/13 12:54:53;;;;;;;9.93;9.02;;;23.90;60.60;;;;;;5013993;28;20056;-74
2022/08/13 12:57:19;;;;;;;10.48;9.05;;;23.90;60.60;;;;;;5013702;28;20095;-75
2022/08/13 12:59:44;;;;;;;13.25;9.35;;;23.90;60.90;;;;;;5012817;28;20034;-74
2022/08/13 13:02:10;;;;;;;11.18;9.68;;;23.80;61.10;;;;;;5013819;28;20614;-73
2022/08/13 13:04:41;;;;;;;12.35;9.23;;;23.60;61.80;;;;;;5013793;28;20034;-74
2022/08/13 13:07:07;;;;;;;10.25;9.13;;;23.70;61.70;;;;;;5012505;28;20503;-72
2022/08/13 13:09:32;;;;;;;11.18;9.50;;;23.90;61.10;;;;;;5015519;28;20034;-73
2022/08/13 13:11:58;;;;;;;10.77;9.25;;;24.10;60.40;;;;;;5016265;28;20033;-74
2022/08/13 13:14:24;;;;;;;15.38;9.75;;;24.30;59.50;;;;;;5017836;28;20112;-74
2022/08/13 13:16:50;;;;;;;10.75;9.23;;;24.50;59.50;;;;;;5015509;28;20084;-74
2022/08/13 13:19:16;;;;;;;9.93;8.93;;;24.80;58.30;;;;;;5013749;28;20021;-74
2022/08/13 13:21:46;;;;;;;9.45;8.27;;;25.20;57.20;;;;;;5013551;28;20084;-73
2022/08/13 13:24:15;;;;;;;14.75;8.77;;;25.20;56.80;;;;;;5013485;28;20029;-73
2022/08/13 13:26:41;;;;;;;10.38;8.20;;;25.40;56.50;;;;;;5013393;28;20073;-74
2022/08/13 13:29:10;;;;;;;11.77;7.60;;;25.70;55.40;;;;;;5013293;28;20022;-72
2022/08/13 13:31:37;;;;;;;8.43;7.53;;;25.60;55.70;;;;;;5013355;28;20042;-74
2022/08/13 13:34:03;;;;;;;8.65;7.55;;;25.70;55.10;;;;;;5013316;28;20022;-74
2022/08/13 13:38:57;;;;;;;12.35;8.38;;;25.60;54.70;;;;;;5008980;28;20050;-75
2022/08/13 13:41:23;;;;;;;10.98;8.18;;;25.80;54.60;;;;;;5011309;28;20487;-76
2022/08/13 13:43:49;;;;;;;23.30;12.45;;;26.40;53.60;;;;;;4994009;28;20404;-76
2022/08/13 13:46:14;;;;;;;9.23;7.68;;;26.80;52.90;;;;;;4994290;28;20496;-76
2022/08/13 13:48:42;;;;;;;9.30;7.32;;;27.20;51.60;;;;;;4994025;28;20025;-76
2022/08/13 13:51:13;;;;;;;8.52;7.00;;;27.30;51.10;;;;;;4994126;28;20018;-76
2022/08/13 13:53:41;;;;;;;7.22;6.53;;;27.70;50.10;;;;;;4992961;28;20555;-76
2022/08/13 13:56:11;;;;;;;12.93;6.93;;;27.60;50.10;;;;;;4994656;28;20046;-77
2022/08/13 13:58:38;;;;;;;6.85;6.10;;;28.00;49.40;;;;;;4993425;28;20026;-77
2022/08/13 14:01:04;;;;;;;18.00;15.05;;;28.10;48.70;;;;;;4993927;28;20129;-76
2022/08/13 14:03:31;;;;;;;16.58;14.15;;;28.60;48.10;;;;;;4993893;28;20023;-76
2022/08/13 14:05:58;;;;;;;7.18;6.47;;;28.80;47.20;;;;;;4992398;28;20060;-75
2022/08/13 14:08:27;;;;;;;7.45;6.75;;;28.70;47.10;;;;;;4993517;28;20026;-76
2022/08/13 14:10:53;;;;;;;27.75;21.80;;;27.80;49.00;;;;;;4993680;28;20109;-75
2022/08/13 14:13:20;;;;;;;15.80;12.25;;;27.70;49.30;;;;;;4993909;28;20475;-76
2022/08/13 14:15:46;;;;;;;9.02;6.93;;;27.50;50.00;;;;;;4993545;28;20036;-75
2022/08/13 14:18:15;;;;;;;15.88;12.55;;;27.30;50.20;;;;;;4993191;28;20054;-76
2022/08/13 14:20:43;;;;;;;8.68;6.93;;;26.90;51.20;;;;;;4993557;28;20038;-76
2022/08/13 14:23:12;;;;;;;7.63;6.28;;;26.70;52.00;;;;;;4993397;28;20101;-77
2022/08/13 14:25:39;;;;;;;8.52;7.70;;;26.60;52.20;;;;;;4993378;28;20105;-75
2022/08/13 14:28:06;;;;;;;7.95;6.82;;;26.40;52.70;;;;;;4992062;28;20077;-76
2022/08/13 14:30:33;;;;;;;10.30;7.13;;;25.70;54.10;;;;;;4992060;28;20026;-74
2022/08/13 14:32:59;;;;;;;8.30;6.45;;;25.20;55.50;;;;;;4991472;28;20022;-76
2022/08/13 14:35:25;;;;;;;8.38;7.32;;;25.10;56.00;;;;;;4993041;28;20153;-76
2022/08/13 14:37:51;;;;;;;8.82;6.93;;;25.20;56.20;;;;;;4992539;28;20133;-75
2022/08/13 14:40:19;;;;;;;8.75;7.25;;;25.40;55.60;;;;;;4991747;28;20022;-74
2022/08/13 14:42:47;;;;;;;8.27;6.85;;;25.50;55.30;;;;;;4993025;28;20078;-74
2022/08/13 14:48:05;;;;;;;6.70;6.03;;;25.80;54.20;;;;;;4993061;28;20037;-76
2022/08/13 14:50:31;;;;;;;7.93;6.90;;;25.90;54.00;;;;;;4993053;28;20022;-76
2022/08/13 14:52:58;;;;;;;8.23;6.78;;;25.90;54.20;;;;;;4991617;28;20030;-76
2022/08/13 14:55:25;;;;;;;7.43;6.72;;;25.70;54.30;;;;;;4992697;28;20037;-75
2022/08/13 14:57:53;;;;;;;8.60;7.07;;;25.70;54.40;;;;;;4992445;28;20034;-76
2022/08/13 15:00:20;;;;;;;7.63;6.88;;;25.80;54.20;;;;;;4992837;28;20026;-76
2022/08/13 15:02:45;;;;;;;6.80;6.10;;;25.90;54.10;;;;;;4992716;28;20026;-75
2022/08/13 15:05:13;;;;;;;7.43;6.63;;;26.10;53.50;;;;;;4992631;28;20084;-76
2022/08/13 15:07:44;;;;;;;7.00;6.30;;;26.20;53.40;;;;;;4992536;28;20105;-76
2022/08/13 15:10:12;;;;;;;9.98;6.70;;;26.20;53.40;;;;;;4994110;28;20101;-75
2022/08/13 15:12:40;;;;;;;7.90;6.72;;;26.00;54.00;;;;;;4996037;28;20485;-75
2022/08/13 15:15:06;;;;;;;7.47;6.60;;;25.80;54.50;;;;;;4995268;28;20528;-76
2022/08/13 15:17:33;;;;;;;10.27;6.70;;;25.70;55.10;;;;;;4991378;28;20451;-75
2022/08/13 15:20:01;;;;;;;7.35;6.45;;;25.50;55.50;;;;;;4992539;28;20053;-76
2022/08/13 15:22:26;;;;;;;8.35;6.75;;;25.50;55.60;;;;;;4992488;28;20026;-75
2022/08/13 15:24:52;;;;;;;7.80;7.00;;;25.50;55.70;;;;;;4992533;28;20113;-75
2022/08/13 15:27:29;;;;;;;7.22;6.60;;;25.70;54.80;;;;;;4992202;28;20092;-75
2022/08/13 15:29:56;;;;;;;8.43;7.25;;;25.90;54.60;;;;;;4993230;28;20355;-75
2022/08/13 15:32:22;;;;;;;7.60;6.90;;;26.00;54.30;;;;;;4993797;28;20027;-75
2022/08/13 15:34:56;;;;;;;9.20;6.85;;;26.10;54.30;;;;;;4992669;28;20444;-75
2022/08/13 15:37:23;;;;;;;11.05;7.38;;;26.30;53.90;;;;;;4993146;28;20526;-76
2022/08/13 15:39:49;;;;;;;7.47;6.78;;;26.40;53.70;;;;;;4993113;28;20043;-77
2022/08/13 15:42:15;;;;;;;6.78;6.18;;;26.40;53.30;;;;;;4994152;28;20026;-76
2022/08/13 15:44:43;;;;;;;8.55;7.15;;;26.30;53.60;;;;;;4993561;28;20058;-76
2022/08/13 15:47:16;;;;;;;8.77;6.75;;;26.00;54.00;;;;;;4996468;28;20018;-76
2022/08/13 15:49:49;;;;;;;9.75;6.88;;;25.90;55.10;;;;;;4995916;28;20684;-76
2022/08/13 15:52:17;;;;;;;9.65;6.70;;;25.70;55.50;;;;;;4995379;28;20553;-76
2022/08/13 15:54:45;;;;;;;8.57;6.88;;;25.50;56.10;;;;;;4995280;28;20034;-76
2022/08/13 15:57:11;;;;;;;7.93;6.97;;;25.60;55.90;;;;;;4996012;28;20034;-75
2022/08/13 15:59:38;;;;;;;8.57;7.10;;;25.70;55.70;;;;;;4996051;28;20023;-75
2022/08/13 16:02:07;;;;;;;8.18;6.88;;;25.60;55.80;;;;;;4995912;28;20026;-74
2022/08/13 16:04:33;;;;;;;8.20;6.55;;;25.50;56.80;;;;;;4995993;28;20023;-75
2022/08/13 16:07:04;;;;;;;9.15;7.05;;;25.50;57.30;;;;;;4995900;28;20366;-76
2022/08/13 16:09:34;;;;;;;11.00;6.45;;;25.40;58.00;;;;;;4995855;28;20489;-76
2022/08/13 16:12:01;;;;;;;10.63;6.32;;;25.20;59.40;;;;;;4996162;28;20038;-75
2022/08/13 16:14:27;;;;;;;12.32;6.85;;;25.30;59.40;;;;;;4998610;28;20056;-76
2022/08/13 16:16:55;;;;;;;8.25;6.30;;;25.50;58.90;;;;;;5002628;28;20026;-76
2022/08/13 16:19:24;;;;;;;7.15;6.45;;;25.30;59.70;;;;;;4999773;28;20084;-76
2022/08/13 16:21:50;;;;;;;7.65;6.40;;;25.10;60.20;;;;;;4995915;28;20030;-75
2022/08/13 16:24:15;;;;;;;9.40;7.40;;;25.10;60.50;;;;;;4994694;28;20036;-75
2022/08/13 16:26:42;;;;;;;6.72;6.00;;;25.10;60.80;;;;;;4995814;28;20019;-76
2022/08/13 16:29:08;;;;;;;9.48;6.18;;;24.90;61.20;;;;;;4995569;28;20413;-74
2022/08/13 16:31:34;;;;;;;10.98;5.65;;;24.70;61.90;;;;;;4994140;28;20026;-75
2022/08/13 16:34:00;;;;;;;8.90;5.57;;;24.50;62.20;;;;;;4995227;28;20026;-76
2022/08/13 16:36:29;;;;;;;7.07;5.07;;;24.60;61.60;;;;;;4995519;28;20034;-74
2022/08/13 16:38:54;;;;;;;6.68;5.15;;;24.40;62.00;;;;;;4995170;28;20408;-74
2022/08/13 16:41:20;;;;;;;6.80;5.55;;;24.50;62.00;;;;;;4995271;28;20022;-75
2022/08/13 16:43:47;;;;;;;6.30;5.70;;;24.40;62.30;;;;;;4995216;28;20481;-75
2022/08/13 16:46:25;;;;;;;7.85;5.80;;;24.50;62.10;;;;;;4993719;28;20385;-75
2022/08/13 16:48:55;;;;;;;6.55;5.45;;;24.50;62.40;;;;;;4994983;28;20062;-76
2022/08/13 16:51:22;;;;;;;6.18;5.57;;;24.40;62.80;;;;;;4993986;28;20497;-74
2022/08/13 16:53:49;;;;;;;9.93;6.00;;;24.30;63.10;;;;;;4995057;28;20058;-74
2022/08/13 16:56:15;;;;;;;7.28;5.65;;;24.20;63.60;;;;;;4994656;28;20026;-76
2022/08/13 16:58:48;;;;;;;6.22;5.63;;;24.30;63.60;;;;;;4994751;28;20018;-75
2022/08/13 17:01:13;;;;;;;7.20;6.50;;;24.30;63.60;;;;;;4994804;28;20506;-76
2022/08/13 17:09:13;;;;;;;7.95;5.95;;;24.30;63.80;;;;;;4994805;28;20029;-75
2022/08/13 17:11:38;;;;;;;;;;;24.30;63.90;;;;;;4994874;28;20019;-76
2022/08/13 17:14:06;;;;;;;6.03;5.43;;;24.20;63.00;;;;;;4994594;28;19910;-76
2022/08/13 17:16:35;;;;;;;5.70;5.18;;;24.10;63.50;;;;;;4994769;28;20026;-75
2022/08/13 17:19:04;;;;;;;6.13;5.25;;;24.20;62.80;;;;;;4994347;28;20028;-75
2022/08/13 17:21:31;;;;;;;5.35;4.75;;;24.10;62.60;;;;;;4994464;28;20469;-75
2022/08/13 17:23:58;;;;;;;5.85;5.25;;;24.10;62.60;;;;;;4994457;28;20160;-75
2022/08/13 17:26:24;;;;;;;6.13;5.03;;;24.00;62.50;;;;;;4994163;28;20506;-75
2022/08/13 17:28:51;;;;;;;5.85;5.13;;;24.00;63.10;;;;;;4993882;28;20121;-74
2022/08/13 17:31:21;;;;;;;5.45;4.88;;;23.90;63.30;;;;;;4992987;28;20397;-76
2022/08/13 17:33:51;;;;;;;5.53;5.00;;;23.80;63.30;;;;;;4993286;28;20018;-76
2022/08/13 17:36:19;;;;;;;6.45;5.20;;;23.70;63.80;;;;;;4994470;28;20027;-76
2022/08/13 17:38:46;;;;;;;5.30;4.80;;;23.60;64.10;;;;;;4993991;28;20037;-76
2022/08/13 17:41:13;;;;;;;8.10;5.53;;;23.50;64.40;;;;;;4994426;28;20037;-75
2022/08/13 17:43:42;;;;;;;7.13;5.05;;;23.40;64.80;;;;;;4994770;28;20034;-76
2022/08/13 17:46:08;;;;;;;5.63;5.13;;;23.40;65.00;;;;;;4994457;28;20281;-76
2022/08/13 17:48:35;;;;;;;7.95;5.47;;;23.30;65.30;;;;;;4992735;28;20033;-76
2022/08/13 17:51:02;;;;;;;8.93;5.53;;;23.20;65.40;;;;;;4994997;28;20069;-77
2022/08/13 17:53:30;;;;;;;8.23;5.20;;;23.30;65.60;;;;;;4995177;28;20026;-76
2022/08/13 17:55:56;;;;;;;5.80;5.25;;;23.30;65.70;;;;;;4992751;28;20049;-76
2022/08/13 17:58:24;;;;;;;6.57;5.32;;;23.20;65.70;;;;;;4993857;28;20034;-77
2022/08/13 18:00:58;;;;;;;6.38;5.35;;;23.20;65.80;;;;;;4994059;28;20037;-76
2022/08/13 18:03:25;;;;;;;6.47;5.80;;;23.20;66.00;;;;;;4994014;28;20117;-75
2022/08/13 18:05:51;;;;;;;6.25;5.55;;;23.10;66.10;;;;;;4993586;28;20030;-76
2022/08/13 18:08:17;;;;;;;9.15;6.00;;;23.10;66.30;;;;;;4992641;28;20022;-76
2022/08/13 18:10:44;;;;;;;5.63;5.13;;;23.10;66.40;;;;;;4993464;28;20033;-76
2022/08/13 18:13:10;;;;;;;6.93;6.22;;;23.10;66.50;;;;;;4993933;28;20049;-76
2022/08/13 18:15:36;;;;;;;10.98;6.18;;;23.10;66.50;;;;;;4992368;28;20034;-73
2022/08/13 18:18:03;;;;;;;5.32;4.82;;;23.00;66.60;;;;;;4993085;28;20073;-75
2022/08/13 18:20:29;;;;;;;6.28;5.63;;;23.00;66.80;;;;;;4993398;28;20081;-75
2022/08/13 18:22:55;;;;;;;6.97;5.60;;;23.00;66.90;;;;;;4992235;28;20030;-77
2022/08/13 18:25:22;;;;;;;6.05;5.25;;;23.00;67.10;;;;;;4993585;28;20061;-75
2022/08/13 18:27:48;;;;;;;6.30;5.55;;;22.90;67.30;;;;;;4993160;28;20515;-76
2022/08/13 18:30:16;;;;;;;5.65;5.15;;;22.90;67.30;;;;;;4993217;28;20033;-76
2022/08/13 18:32:44;;;;;;;5.47;4.97;;;22.90;67.40;;;;;;4993166;28;20100;-75
2022/08/13 18:35:11;;;;;;;5.97;5.35;;;22.90;67.50;;;;;;4991933;28;20030;-76
2022/08/13 18:37:38;;;;;;;6.95;5.15;;;22.90;67.60;;;;;;4992746;28;20038;-74
2022/08/13 18:40:10;;;;;;;7.45;5.38;;;22.90;67.60;;;;;;4993175;28;20049;-76
2022/08/13 18:42:36;;;;;;;6.13;5.40;;;22.90;67.70;;;;;;4993042;28;20026;-76
2022/08/13 18:45:08;;;;;;;5.63;5.13;;;22.90;67.60;;;;;;4992660;28;20030;-76
2022/08/13 18:47:34;;;;;;;7.20;6.50;;;22.90;67.70;;;;;;4992941;28;20053;-76
2022/08/13 18:50:01;;;;;;;8.13;5.63;;;22.80;68.00;;;;;;4993214;28;20023;-74
2022/08/13 18:52:26;;;;;;;6.90;5.40;;;22.80;68.50;;;;;;4993509;28;20027;-76
2022/08/13 18:54:52;;;;;;;6.00;5.40;;;22.80;68.40;;;;;;4992670;28;20034;-76
2022/08/13 18:57:18;;;;;;;5.63;4.82;;;22.70;68.50;;;;;;4993411;28;20536;-76
2022/08/13 18:59:44;;;;;;;5.88;5.38;;;22.70;68.50;;;;;;4994789;28;20105;-76
2022/08/13 19:02:10;;;;;;;6.65;6.03;;;22.70;68.80;;;;;;4993337;28;20030;-76
2022/08/13 19:04:36;;;;;;;6.82;5.68;;;22.60;69.00;;;;;;4992963;28;20073;-77
2022/08/13 19:07:03;;;;;;;6.32;5.65;;;22.60;69.40;;;;;;4992514;28;20022;-74
2022/08/13 19:09:29;;;;;;;6.47;5.88;;;22.50;69.60;;;;;;4992484;28;20030;-75
2022/08/13 19:11:55;;;;;;;6.40;5.78;;;22.50;69.70;;;;;;4992338;28;20022;-75
2022/08/13 19:14:25;;;;;;;6.40;5.70;;;22.50;69.80;;;;;;4992395;28;20023;-77
2022/08/13 19:16:53;;;;;;;7.18;6.47;;;22.40;70.20;;;;;;4992794;28;20022;-75
2022/08/13 19:19:22;;;;;;;8.75;5.93;;;22.40;70.30;;;;;;4992358;28;20110;-75
2022/08/13 19:21:51;;;;;;;6.50;5.90;;;22.30;70.60;;;;;;4992423;28;20030;-74
2022/08/13 19:24:18;;;;;;;6.93;6.15;;;22.20;70.60;;;;;;4992485;28;20113;-74
2022/08/13 19:26:45;;;;;;;8.57;6.35;;;22.20;70.70;;;;;;4992527;28;20030;-75
2022/08/13 19:29:11;;;;;;;7.40;6.15;;;22.10;70.90;;;;;;4992276;28;20060;-73
2022/08/13 19:31:38;;;;;;;11.23;9.43;;;22.10;71.30;;;;;;4992455;28;20102;-76
2022/08/13 19:34:05;;;;;;;7.57;6.88;;;22.00;71.10;;;;;;4991126;28;20037;-73
2022/08/13 19:36:30;;;;;;;20.60;7.53;;;22.00;71.50;;;;;;4993195;28;20065;-72
2022/08/13 19:38:57;;;;;;;29.92;21.80;;;21.90;71.70;;;;;;5021962;22;20342;-73
2022/08/13 19:41:23;;;;;;;21.63;15.57;;;21.90;71.70;;;;;;5009644;28;20079;-76
2022/08/13 19:43:54;;;;;;;25.67;10.93;;;21.80;71.80;;;;;;5003025;28;20489;-75
2022/08/13 19:46:19;;;;;;;;;;;21.80;72.10;;;;;;5005767;28;20034;-76
2022/08/13 19:48:46;;;;;;;9.50;7.65;;;21.80;72.00;;;;;;5008151;28;19913;-75
2022/08/13 19:51:12;;;;;;;16.15;10.60;;;21.70;72.30;;;;;;5010957;28;20049;-74
2022/08/13 19:53:40;;;;;;;10.32;8.20;;;21.70;72.40;;;;;;4996930;28;20065;-74
2022/08/13 19:56:09;;;;;;;8.77;7.88;;;21.70;72.40;;;;;;5011885;28;20052;-75
2022/08/13 19:58:37;;;;;;;15.50;11.52;;;21.60;72.50;;;;;;5011008;28;20219;-77
2022/08/13 20:01:04;;;;;;;10.60;7.93;;;21.60;72.80;;;;;;5011567;28;20377;-73
2022/08/13 20:03:32;;;;;;;11.00;8.48;;;21.50;73.00;;;;;;5011402;28;20404;-73
2022/08/13 20:05:58;;;;;;;10.95;8.40;;;21.50;73.10;;;;;;5011144;28;20029;-73
2022/08/13 20:08:24;;;;;;;10.63;9.50;;;21.50;73.30;;;;;;5010384;28;20401;-73
2022/08/13 20:10:49;;;;;;;12.02;10.82;;;21.50;73.40;;;;;;5009916;28;20030;-73
2022/08/13 20:13:16;;;;;;;10.23;9.23;;;21.50;73.30;;;;;;5011261;28;20100;-73
2022/08/13 20:15:43;;;;;;;9.98;8.98;;;21.50;73.30;;;;;;5011213;28;20028;-73
2022/08/13 20:18:09;;;;;;;8.68;7.78;;;21.60;73.20;;;;;;5009178;28;20458;-73
2022/08/13 20:20:38;;;;;;;8.25;7.45;;;21.60;73.10;;;;;;5012477;28;20098;-73
2022/08/13 20:23:12;;;;;;;7.85;7.15;;;21.50;73.10;;;;;;5011911;28;20022;-72
2022/08/13 20:25:37;;;;;;;8.73;7.47;;;21.50;73.20;;;;;;5011307;28;20372;-73
2022/08/13 20:28:04;;;;;;;8.52;7.72;;;21.50;73.30;;;;;;5018993;28;20018;-71